createdAt,value
2022-09-26T00:01:46.147Z,25.17
2022-09-26T00:04:24.636Z,26.13
2022-09-26T00:06:58.201Z,27.77
2022-09-26T00:09:30.819Z,27.50
2022-09-26T00:12:01.999Z,27.80
2022-09-26T00:14:31.029Z,27.10
2022-09-26T00:17:00.677Z,24.30
2022-09-26T00:19:29.453Z,29.52
2022-09-26T00:21:57.833Z,27.50
2022-09-26T00:24:28.353Z,26.70
2022-09-26T00:26:56.999Z,29.15
2022-09-26T00:29:26.680Z,24.90
2022-09-26T00:31:55.140Z,31.25
2022-09-26T00:34:23.967Z,28.40
2022-09-26T00:36:53.710Z,27.80
2022-09-26T00:39:22.076Z,28.40
2022-09-26T00:41:50.728Z,25.65
2022-09-26T00:44:49.576Z,28.05
2022-09-26T00:47:43.467Z,26.50
2022-09-26T00:50:18.021Z,25.77
2022-09-26T00:52:55.100Z,30.73
2022-09-26T00:55:29.049Z,41.77
2022-09-26T00:58:01.168Z,32.58
2022-09-26T01:00:31.483Z,24.30
2022-09-26T01:03:00.353Z,30.23
2022-09-26T01:05:29.019Z,25.90
2022-09-26T01:07:58.329Z,29.75
2022-09-26T01:10:28.658Z,24.90
2022-09-26T01:12:58.214Z,30.40
2022-09-26T01:15:26.842Z,31.38
2022-09-26T01:17:57.913Z,32.83
2022-09-26T01:20:40.137Z,31.57
2022-09-26T01:23:42.858Z,26.67
2022-09-26T01:26:41.462Z,37.30
2022-09-26T01:29:52.077Z,27.77
2022-09-26T01:32:51.066Z,39.33
2022-09-26T01:35:33.399Z,30.83
2022-09-26T01:38:15.388Z,37.38
2022-09-26T01:40:57.483Z,30.85
2022-09-26T01:43:35.144Z,30.63
2022-09-26T01:46:14.487Z,26.87
2022-09-26T01:48:48.474Z,35.53
2022-09-26T01:51:23.598Z,31.42
2022-09-26T01:53:57.318Z,27.98
2022-09-26T01:56:29.510Z,30.00
2022-09-26T01:59:01.886Z,30.65
2022-09-26T02:01:36.684Z,38.37
2022-09-26T02:04:11.019Z,28.17
2022-09-26T02:06:48.194Z,34.53
2022-09-26T02:09:18.585Z,35.13
2022-09-26T02:11:51.966Z,24.40
2022-09-26T02:14:25.409Z,27.93
2022-09-26T02:16:59.311Z,32.77
2022-09-26T02:19:32.290Z,27.23
2022-09-26T02:22:02.723Z,32.73
2022-09-26T02:24:31.468Z,25.67
2022-09-26T02:27:02.071Z,31.37
2022-09-26T02:29:31.019Z,36.43
2022-09-26T02:32:04.086Z,35.93
2022-09-26T02:34:36.001Z,35.27
2022-09-26T02:37:08.271Z,30.60
2022-09-26T02:39:37.388Z,32.97
2022-09-26T02:42:19.043Z,32.00
2022-09-26T02:45:01.899Z,32.83
2022-09-26T02:47:57.672Z,39.77
2022-09-26T02:50:41.548Z,32.47
2022-09-26T02:53:26.583Z,36.10
2022-09-26T02:56:05.474Z,35.87
2022-09-26T02:58:42.443Z,32.37
2022-09-26T03:01:18.423Z,40.70
2022-09-26T03:03:54.429Z,32.97
2022-09-26T03:06:32.571Z,34.13
2022-09-26T03:09:02.537Z,33.07
2022-09-26T03:11:33.486Z,36.13
2022-09-26T03:14:03.683Z,33.57
2022-09-26T03:16:45.159Z,38.30
2022-09-26T03:19:22.659Z,38.70
2022-09-26T03:21:52.876Z,38.07
2022-09-26T03:24:21.519Z,32.53
2022-09-26T03:26:50.844Z,42.37
2022-09-26T03:29:20.449Z,30.07
2022-09-26T03:31:50.401Z,34.90
2022-09-26T03:34:20.582Z,37.53
2022-09-26T03:36:51.832Z,34.60
2022-09-26T03:39:20.306Z,35.17
2022-09-26T03:42:04.144Z,40.20
2022-09-26T03:44:33.337Z,30.37
2022-09-26T03:47:14.482Z,43.23
2022-09-26T03:49:45.360Z,33.50
2022-09-26T03:52:15.388Z,34.15
2022-09-26T03:54:45.875Z,40.70
2022-09-26T03:57:19.657Z,32.23
2022-09-26T04:00:07.599Z,39.00
2022-09-26T04:02:44.803Z,33.97
2022-09-26T04:05:26.939Z,35.90
2022-09-26T04:07:56.686Z,33.73
2022-09-26T04:10:25.086Z,33.53
2022-09-26T04:12:53.938Z,37.70
2022-09-26T04:15:22.183Z,34.00
2022-09-26T04:17:52.594Z,47.17
2022-09-26T04:20:21.487Z,44.97
2022-09-26T04:22:49.847Z,27.33
2022-09-26T04:25:20.099Z,35.50
2022-09-26T04:27:48.476Z,39.30
2022-09-26T04:30:17.176Z,36.80
2022-09-26T04:32:50.566Z,42.20
2022-09-26T04:35:34.005Z,45.13
2022-09-26T04:38:04.617Z,36.20
2022-09-26T04:40:39.569Z,34.83
2022-09-26T04:43:12.836Z,36.33
2022-09-26T04:45:42.216Z,39.80
2022-09-26T04:48:11.208Z,46.23
2022-09-26T04:50:45.944Z,39.60
2022-09-26T04:53:14.344Z,31.97
2022-09-26T04:56:18.037Z,38.10
2022-09-26T04:58:47.002Z,44.83
2022-09-26T05:01:18.460Z,35.73
2022-09-26T05:03:58.978Z,46.57
2022-09-26T05:06:29.453Z,51.57
2022-09-26T05:08:58.307Z,40.23
2022-09-26T05:11:43.943Z,48.07
2022-09-26T05:14:14.266Z,36.67
2022-09-26T05:16:43.216Z,40.00
2022-09-26T05:19:15.638Z,36.67
2022-09-26T05:22:04.469Z,33.63
2022-09-26T05:25:03.479Z,40.80
2022-09-26T05:27:33.456Z,37.33
2022-09-26T05:30:02.885Z,48.53
2022-09-26T05:32:31.855Z,37.77
2022-09-26T05:35:00.689Z,42.97
2022-09-26T05:37:32.111Z,34.97
2022-09-26T05:40:18.941Z,38.00
2022-09-26T05:42:55.658Z,37.40
2022-09-26T05:45:26.315Z,45.10
2022-09-26T05:47:54.892Z,45.13
2022-09-26T05:50:24.693Z,32.13
2022-09-26T05:52:53.186Z,40.37
2022-09-26T05:55:26.155Z,41.93
2022-09-26T05:58:18.764Z,37.27
2022-09-26T06:01:09.245Z,34.50
2022-09-26T06:03:39.508Z,39.43
2022-09-26T06:06:16.102Z,40.57
2022-09-26T06:08:45.381Z,33.27
2022-09-26T06:11:27.950Z,36.70
2022-09-26T06:14:00.531Z,36.90
2022-09-26T06:16:32.260Z,37.77
2022-09-26T06:19:02.539Z,42.07
2022-09-26T06:21:31.490Z,40.85
2022-09-26T06:24:12.833Z,39.10
2022-09-26T06:26:43.343Z,37.88
2022-09-26T06:29:15.479Z,35.10
2022-09-26T06:31:45.187Z,38.47
2022-09-26T06:34:16.107Z,31.67
2022-09-26T06:37:03.544Z,41.88
2022-09-26T06:39:35.809Z,34.50
2022-09-26T06:42:07.375Z,32.13
2022-09-26T06:45:12.607Z,37.45
2022-09-26T06:48:24.555Z,38.13
2022-09-26T06:51:14.334Z,35.30
2022-09-26T06:53:45.779Z,31.08
2022-09-26T06:56:18.203Z,33.63
2022-09-26T06:58:46.833Z,28.98
2022-09-26T07:01:18.613Z,27.52
2022-09-26T07:04:06.015Z,36.22
2022-09-26T07:06:38.780Z,24.00
2022-09-26T07:09:12.223Z,38.22
2022-09-26T07:14:42.218Z,31.75
2022-09-26T07:17:29.369Z,33.92
2022-09-26T07:20:13.459Z,29.77
2022-09-26T07:23:02.665Z,31.52
2022-09-26T07:25:33.501Z,27.90
2022-09-26T07:28:03.815Z,32.05
2022-09-26T07:30:44.891Z,33.10
2022-09-26T07:33:25.262Z,29.17
2022-09-26T07:35:59.816Z,36.20
2022-09-26T07:38:31.546Z,32.50
2022-09-26T07:41:01.167Z,27.45
2022-09-26T07:44:04.546Z,24.88
2022-09-26T07:46:39.010Z,18.77
2022-09-26T07:49:26.123Z,17.60
2022-09-26T07:52:12.731Z,30.10
2022-09-26T07:54:59.162Z,35.95
2022-09-26T07:57:51.153Z,16.35
2022-09-26T08:00:31.757Z,29.75
2022-09-26T08:03:26.186Z,22.42
2022-09-26T08:05:59.467Z,19.65
2022-09-26T08:08:28.122Z,23.88
2022-09-26T08:11:04.183Z,21.58
2022-09-26T08:14:08.788Z,24.90
2022-09-26T08:16:57.847Z,24.70
2022-09-26T08:19:26.733Z,24.13
2022-09-26T08:21:56.591Z,21.25
2022-09-26T08:24:25.112Z,20.85
2022-09-26T08:27:14.753Z,34.95
2022-09-26T08:29:49.269Z,24.75
2022-09-26T08:32:19.279Z,26.23
2022-09-26T08:34:49.209Z,26.10
2022-09-26T08:37:37.431Z,26.45
2022-09-26T08:40:33.816Z,25.42
2022-09-26T08:43:10.061Z,20.67
2022-09-26T08:46:32.088Z,28.02
2022-09-26T08:49:41.713Z,25.30
2022-09-26T08:52:24.587Z,20.35
2022-09-26T08:54:56.639Z,16.25
2022-09-26T08:57:35.407Z,24.08
2022-09-26T09:00:15.350Z,19.83
2022-09-26T09:02:57.090Z,20.35
2022-09-26T09:05:30.366Z,21.25
2022-09-26T09:08:02.711Z,25.38
2022-09-26T09:10:49.400Z,31.65
2022-09-26T09:13:42.361Z,21.67
2022-09-26T09:16:45.885Z,31.92
2022-09-26T09:19:34.299Z,26.38
2022-09-26T09:22:41.731Z,24.75
2022-09-26T09:25:22.702Z,19.27
2022-09-26T09:28:11.465Z,26.70
2022-09-26T09:30:44.852Z,25.33
2022-09-26T09:33:39.825Z,22.05
2022-09-26T09:36:22.042Z,12.90
2022-09-26T09:39:13.638Z,21.83
2022-09-26T09:41:54.727Z,27.33
2022-09-26T09:44:46.468Z,13.88
2022-09-26T09:47:16.980Z,23.60
2022-09-26T09:49:50.436Z,28.20
2022-09-26T09:52:40.959Z,20.63
2022-09-26T09:55:33.413Z,23.42
2022-09-26T09:58:24.716Z,27.08
2022-09-26T10:01:09.796Z,30.15
2022-09-26T10:03:43.586Z,19.50
2022-09-26T10:06:44.227Z,18.35
2022-09-26T10:09:35.539Z,17.38
2022-09-26T10:12:35.258Z,15.45
2022-09-26T10:15:26.376Z,25.52
2022-09-26T10:18:26.494Z,26.00
2022-09-26T10:21:13.040Z,19.35
2022-09-26T10:23:44.716Z,20.85
2022-09-26T10:26:31.285Z,12.77
2022-09-26T10:29:05.055Z,27.17
2022-09-26T10:31:42.049Z,17.35
2022-09-26T10:34:28.134Z,20.23
2022-09-26T10:36:57.516Z,15.45
2022-09-26T10:39:49.251Z,28.85
2022-09-26T10:42:20.238Z,24.17
2022-09-26T10:45:00.126Z,25.67
2022-09-26T10:48:07.831Z,17.00
2022-09-26T10:51:02.627Z,17.73
2022-09-26T10:53:54.257Z,5.88
2022-09-26T10:56:30.739Z,25.10
2022-09-26T10:59:04.352Z,24.30
2022-09-26T11:01:38.412Z,12.60
2022-09-26T11:04:39.265Z,15.55
2022-09-26T11:07:33.342Z,26.58
2022-09-26T11:10:41.435Z,23.13
2022-09-26T11:13:21.860Z,21.27
2022-09-26T11:16:02.005Z,22.95
2022-09-26T11:18:40.740Z,17.35
2022-09-26T11:21:28.408Z,17.58
2022-09-26T11:24:05.899Z,19.13
2022-09-26T11:26:43.619Z,20.50
2022-09-26T11:29:18.270Z,22.00
2022-09-26T11:32:00.277Z,21.35
2022-09-26T11:34:54.641Z,10.38
2022-09-26T11:37:36.504Z,23.70
2022-09-26T11:40:36.071Z,20.50
2022-09-26T11:43:16.218Z,18.73
2022-09-26T11:46:02.871Z,20.88
2022-09-26T11:49:28.432Z,22.85
2022-09-26T11:52:36.999Z,19.10
2022-09-26T11:55:17.647Z,18.20
2022-09-26T11:57:58.235Z,19.98
2022-09-26T12:00:32.087Z,13.85
2022-09-26T12:03:26.074Z,8.98
2022-09-26T12:06:00.483Z,19.20
2022-09-26T12:08:44.059Z,24.55
2022-09-26T12:11:24.537Z,18.20
2022-09-26T12:14:01.286Z,21.00
2022-09-26T12:16:36.644Z,22.13
2022-09-26T12:19:16.762Z,30.77
2022-09-26T12:22:13.379Z,22.83
2022-09-26T12:24:49.422Z,25.10
2022-09-26T12:27:25.671Z,19.30
2022-09-26T12:30:04.262Z,34.13
2022-09-26T12:32:52.456Z,13.98
2022-09-26T12:35:45.271Z,26.23
2022-09-26T12:38:39.000Z,22.52
2022-09-26T12:41:38.221Z,28.45
2022-09-26T12:44:22.731Z,28.52
2022-09-26T12:47:15.762Z,33.55
2022-09-26T12:50:01.658Z,21.90
2022-09-26T12:52:50.536Z,20.45
2022-09-26T12:55:31.579Z,35.20
2022-09-26T12:58:11.314Z,30.30
2022-09-26T13:00:46.279Z,29.58
2022-09-26T13:03:50.248Z,32.33
2022-09-26T13:07:07.646Z,28.00
2022-09-26T13:09:56.577Z,26.33
2022-09-26T13:12:40.597Z,27.58
2022-09-26T13:15:21.582Z,26.20
2022-09-26T13:17:56.728Z,30.73
2022-09-26T13:20:33.134Z,24.30
2022-09-26T13:23:09.754Z,24.13
2022-09-26T13:25:48.746Z,24.77
2022-09-26T13:28:21.615Z,24.15
2022-09-26T13:30:54.671Z,24.02
2022-09-26T13:33:29.386Z,25.73
2022-09-26T13:36:01.378Z,24.35
2022-09-26T13:38:39.928Z,20.98
2022-09-26T13:41:22.212Z,18.98
2022-09-26T13:44:03.448Z,20.63
2022-09-26T13:46:39.997Z,29.02
2022-09-26T13:49:44.030Z,25.52
2022-09-26T13:52:25.120Z,21.00
2022-09-26T13:55:00.450Z,23.48
2022-09-26T13:57:40.119Z,26.20
2022-09-26T14:00:41.026Z,13.55
2022-09-26T14:03:39.976Z,17.77
2022-09-26T14:06:10.662Z,24.33
2022-09-26T14:09:28.650Z,20.55
2022-09-26T14:12:32.407Z,24.52
2022-09-26T14:15:24.116Z,16.60
2022-09-26T14:18:18.859Z,23.05
2022-09-26T14:21:06.842Z,20.73
2022-09-26T14:23:43.027Z,11.57
2022-09-26T14:26:14.234Z,13.10
2022-09-26T14:28:51.967Z,13.38
2022-09-26T14:31:57.080Z,11.23
2022-09-26T14:34:30.484Z,7.07
2022-09-26T14:37:03.440Z,10.65
2022-09-26T14:39:39.538Z,21.20
2022-09-26T14:42:11.135Z,16.95
2022-09-26T14:44:46.602Z,14.10
2022-09-26T14:47:17.241Z,13.75
2022-09-26T14:49:55.135Z,11.00
2022-09-26T14:52:25.260Z,19.75
2022-09-26T14:55:01.300Z,14.15
2022-09-26T14:57:33.870Z,17.58
2022-09-26T15:00:03.486Z,15.15
2022-09-26T15:02:39.381Z,13.90
2022-09-26T15:05:23.422Z,12.73
2022-09-26T15:07:54.958Z,21.15
2022-09-26T15:10:35.340Z,13.00
2022-09-26T15:13:10.676Z,19.25
2022-09-26T15:15:51.411Z,23.63
2022-09-26T15:18:31.442Z,12.18
2022-09-26T15:21:04.834Z,9.95
2022-09-26T15:23:45.350Z,9.88
2022-09-26T15:26:17.652Z,16.35
2022-09-26T15:28:48.592Z,14.63
2022-09-26T15:31:23.558Z,10.77
2022-09-26T15:33:55.387Z,18.88
2022-09-26T15:36:24.109Z,11.15
2022-09-26T15:38:52.759Z,19.15
2022-09-26T15:41:36.239Z,13.05
2022-09-26T15:44:07.890Z,18.05
2022-09-26T15:46:36.479Z,14.77
2022-09-26T15:49:14.413Z,12.60
2022-09-26T15:51:45.221Z,18.13
2022-09-26T15:54:22.851Z,12.98
2022-09-26T15:56:55.555Z,17.67
2022-09-26T15:59:28.764Z,12.02
2022-09-26T16:01:58.363Z,14.95
2022-09-26T16:04:28.104Z,12.90
2022-09-26T16:07:02.077Z,12.85
2022-09-26T16:09:33.312Z,16.35
2022-09-26T16:12:07.638Z,23.52
2022-09-26T16:14:41.634Z,11.15
2022-09-26T16:17:21.498Z,9.27
2022-09-26T16:19:53.033Z,10.50
2022-09-26T16:22:40.432Z,9.60
2022-09-26T16:25:32.575Z,17.27
2022-09-26T16:28:24.381Z,10.55
2022-09-26T16:31:10.532Z,11.75
2022-09-26T16:33:40.440Z,14.73
2022-09-26T16:36:18.564Z,18.02
2022-09-26T16:38:56.088Z,16.45
2022-09-26T16:41:56.170Z,16.85
2022-09-26T16:44:29.006Z,20.98
2022-09-26T16:47:03.391Z,12.70
2022-09-26T16:49:45.992Z,17.50
2022-09-26T16:52:29.163Z,16.45
2022-09-26T16:54:59.011Z,12.75
2022-09-26T16:57:30.482Z,18.17
2022-09-26T17:00:23.494Z,12.93
2022-09-26T17:02:52.443Z,23.17
2022-09-26T17:05:22.736Z,22.52
2022-09-26T17:07:51.450Z,25.13
2022-09-26T17:10:24.024Z,33.17
2022-09-26T17:12:53.241Z,36.47
2022-09-26T17:15:29.108Z,26.08
2022-09-26T17:17:58.613Z,19.27
2022-09-26T17:20:28.668Z,21.85
2022-09-26T17:22:56.923Z,10.05
2022-09-26T17:25:25.981Z,11.88
2022-09-26T17:27:59.638Z,22.20
2022-09-26T17:30:32.409Z,12.07
2022-09-26T17:33:00.985Z,18.05
2022-09-26T17:35:32.371Z,9.75
2022-09-26T17:38:01.289Z,6.78
2022-09-26T17:40:33.029Z,15.43
2022-09-26T17:43:02.101Z,9.95
2022-09-26T17:45:35.139Z,14.20
2022-09-26T17:48:06.533Z,13.85
2022-09-26T17:50:36.747Z,20.30
2022-09-26T17:53:07.785Z,14.82
2022-09-26T17:55:36.640Z,17.98
2022-09-26T17:58:10.251Z,25.50
2022-09-26T18:00:41.164Z,18.83
2022-09-26T18:03:19.287Z,35.00
2022-09-26T18:05:48.375Z,27.58
2022-09-26T18:08:21.984Z,20.48
2022-09-26T18:10:55.093Z,11.60
2022-09-26T18:13:26.620Z,19.60
2022-09-26T18:15:57.643Z,23.15
2022-09-26T18:18:29.528Z,13.07
2022-09-26T18:20:58.894Z,15.40
2022-09-26T18:23:29.775Z,18.40
2022-09-26T18:26:00.221Z,17.40
2022-09-26T18:28:29.997Z,11.57
2022-09-26T18:31:00.820Z,13.40
2022-09-26T18:33:35.779Z,14.10
2022-09-26T18:36:06.527Z,8.73
2022-09-26T18:38:35.496Z,10.73
2022-09-26T18:41:07.002Z,8.60
2022-09-26T18:43:41.181Z,12.35
2022-09-26T18:46:16.797Z,18.65
2022-09-26T18:48:46.518Z,11.95
2022-09-26T18:51:15.182Z,26.38
2022-09-26T18:53:43.511Z,23.80
2022-09-26T18:56:30.083Z,21.30
2022-09-26T18:58:58.785Z,39.55
2022-09-26T19:01:31.008Z,22.63
2022-09-26T19:04:01.629Z,22.98
2022-09-26T19:06:33.619Z,22.30
2022-09-26T19:09:04.753Z,15.90
2022-09-26T19:11:35.257Z,28.43
2022-09-26T19:14:13.353Z,21.80
2022-09-26T19:16:43.684Z,23.07
2022-09-26T19:19:12.306Z,22.23
2022-09-26T19:21:42.981Z,30.08
2022-09-26T19:24:20.682Z,27.47
2022-09-26T19:26:52.562Z,32.28
2022-09-26T19:29:28.642Z,27.60
2022-09-26T19:31:58.712Z,37.70
2022-09-26T19:34:31.858Z,20.17
2022-09-26T19:37:03.182Z,24.13
2022-09-26T19:39:32.503Z,27.03
2022-09-26T19:42:01.713Z,16.77
2022-09-26T19:44:30.179Z,24.65
2022-09-26T19:47:00.341Z,26.63
2022-09-26T19:49:32.017Z,21.03
2022-09-26T19:52:02.495Z,21.98
2022-09-26T19:54:31.006Z,25.63
2022-09-26T19:56:59.446Z,18.23
2022-09-26T19:59:27.973Z,19.67
2022-09-26T20:01:56.447Z,24.33
2022-09-26T20:04:29.489Z,21.07
2022-09-26T20:06:58.578Z,18.83
2022-09-26T20:09:27.240Z,22.93
2022-09-26T20:11:55.905Z,18.77
2022-09-26T20:14:24.635Z,21.77
2022-09-26T20:16:55.707Z,25.13
2022-09-26T20:19:37.552Z,22.43
2022-09-26T20:22:08.344Z,26.13
2022-09-26T20:24:39.735Z,19.07
2022-09-26T20:27:15.937Z,25.60
2022-09-26T20:30:13.336Z,34.93
2022-09-26T20:32:42.775Z,45.72
2022-09-26T20:35:15.133Z,39.33
2022-09-26T20:37:44.933Z,36.03
2022-09-26T20:40:18.365Z,27.40
2022-09-26T20:42:49.641Z,26.30
2022-09-26T20:45:21.849Z,20.63
2022-09-26T20:47:50.737Z,33.80
2022-09-26T20:50:21.675Z,28.47
2022-09-26T20:52:50.532Z,29.70
2022-09-26T20:55:20.223Z,45.40
2022-09-26T20:57:48.718Z,33.43
2022-09-26T21:00:17.869Z,40.17
2022-09-26T21:02:47.804Z,46.40
2022-09-26T21:05:18.034Z,33.67
2022-09-26T21:07:47.920Z,27.23
2022-09-26T21:10:24.979Z,34.53
2022-09-26T21:12:54.076Z,31.17
2022-09-26T21:15:23.978Z,34.37
2022-09-26T21:17:53.659Z,39.03
2022-09-26T21:20:25.739Z,22.83
2022-09-26T21:23:11.458Z,36.47
2022-09-26T21:25:39.967Z,39.57
2022-09-26T21:28:33.047Z,25.03
2022-09-26T21:31:05.869Z,24.77
2022-09-26T21:33:34.645Z,32.10
2022-09-26T21:36:03.897Z,27.57
2022-09-26T21:38:33.823Z,39.53
2022-09-26T21:41:03.690Z,50.47
2022-09-26T21:43:36.742Z,38.43
2022-09-26T21:46:06.892Z,33.57
2022-09-26T21:48:35.478Z,34.53
2022-09-26T21:51:06.911Z,33.47
2022-09-26T21:53:45.846Z,34.03
2022-09-26T21:56:17.864Z,38.67
2022-09-26T21:58:47.231Z,31.73
2022-09-26T22:01:15.790Z,33.43
2022-09-26T22:03:44.247Z,30.93
2022-09-26T22:06:12.870Z,30.57
2022-09-26T22:08:43.405Z,26.07
2022-09-26T22:11:14.090Z,40.30
2022-09-26T22:13:42.705Z,34.00
2022-09-26T22:16:13.358Z,28.40
2022-09-26T22:18:42.583Z,35.80
2022-09-26T22:21:12.671Z,33.20
2022-09-26T22:23:42.794Z,27.27
2022-09-26T22:26:11.629Z,32.03
2022-09-26T22:28:40.252Z,27.47
2022-09-26T22:31:08.673Z,31.70
2022-09-26T22:33:37.580Z,41.30
2022-09-26T22:36:06.832Z,31.27
2022-09-26T22:38:35.987Z,31.13
2022-09-26T22:41:08.001Z,31.80
2022-09-26T22:43:36.956Z,33.67
2022-09-26T22:46:07.832Z,33.47
2022-09-26T22:48:38.247Z,37.33
2022-09-26T22:51:07.485Z,30.57
2022-09-26T22:53:37.732Z,35.10
2022-09-26T22:56:10.241Z,30.53
2022-09-26T22:58:41.746Z,37.53
2022-09-26T23:01:11.865Z,31.10
2022-09-26T23:03:41.094Z,37.17
2022-09-26T23:06:10.557Z,34.43
2022-09-26T23:08:39.294Z,31.60
2022-09-26T23:11:11.511Z,35.23
2022-09-26T23:13:40.255Z,29.63
2022-09-26T23:16:11.352Z,29.67
2022-09-26T23:18:41.467Z,31.87
2022-09-26T23:21:11.461Z,32.07
2022-09-26T23:23:42.546Z,33.47
2022-09-26T23:26:17.401Z,34.27
2022-09-26T23:28:45.721Z,33.40
2022-09-26T23:31:14.970Z,37.80
2022-09-26T23:33:44.014Z,27.70
2022-09-26T23:36:12.983Z,29.53
2022-09-26T23:38:42.631Z,36.43
2022-09-26T23:41:12.193Z,33.77
2022-09-26T23:43:42.301Z,31.83
2022-09-26T23:46:13.200Z,35.30
2022-09-26T23:48:41.661Z,31.97
2022-09-26T23:51:10.426Z,31.53
2022-09-26T23:53:39.000Z,35.40
2022-09-26T23:56:09.913Z,26.27
2022-09-26T23:58:38.725Z,29.73
